SWA1111 KDEN-KBZN
Flight info
| Callsign | SWA1111 |
|---|---|
| Flight time | 1h 21m |
| Altitude | 36000 |
| Route | XXWNG1 XXWNG TOCUD |
| Aircraft | B737/M-SADE2E3GIJ4RWZ/LB1D1 |
Departure
| Time | 2026-05-06 18:04 |
|---|---|
| Airport | Denver International Airport (KDEN) |
Arrival
| Time | 2026-05-06 19:25 |
|---|---|
| Airport | Bozeman Yellowstone International Airport (KBZN) |
| Time | Latitude | Longitude | Altitude | Speed | Heading |
|---|---|---|---|---|---|
| 2026-05-06 17:35 | 39.86355 | -104.67474 | 5375 ft | 0 kts | 196° |
| 2026-05-06 17:52 | 39.86356 | -104.67474 | 5375 ft | 1 kts | 196° |
| 2026-05-06 17:52 | 39.86368 | -104.67469 | 5373 ft | 3 kts | 196° |
| 2026-05-06 17:52 | 39.86388 | -104.67462 | 5372 ft | 3 kts | 196° |
| 2026-05-06 17:52 | 39.86407 | -104.67455 | 5372 ft | 3 kts | 196° |
| 2026-05-06 17:53 | 39.86427 | -104.67448 | 5371 ft | 3 kts | 196° |
| 2026-05-06 17:53 | 39.86441 | -104.67442 | 5369 ft | 1 kts | 196° |
| 2026-05-06 17:53 | 39.86442 | -104.67442 | 5369 ft | 0 kts | 196° |
| 2026-05-06 17:57 | 39.86415 | -104.67496 | 5371 ft | 17 kts | 263° |
| 2026-05-06 17:57 | 39.86416 | -104.67677 | 5374 ft | 20 kts | 273° |
| 2026-05-06 17:57 | 39.86416 | -104.67854 | 5374 ft | 19 kts | 270° |
| 2026-05-06 17:57 | 39.86431 | -104.68023 | 5374 ft | 19 kts | 271° |
| 2026-05-06 17:58 | 39.86429 | -104.68189 | 5370 ft | 18 kts | 268° |
| 2026-05-06 17:58 | 39.86422 | -104.68344 | 5366 ft | 16 kts | 251° |
| 2026-05-06 17:58 | 39.86328 | -104.68390 | 5367 ft | 15 kts | 179° |
| 2026-05-06 17:58 | 39.86204 | -104.68393 | 5368 ft | 23 kts | 181° |
| 2026-05-06 17:59 | 39.86027 | -104.68393 | 5370 ft | 25 kts | 180° |
| 2026-05-06 17:59 | 39.85854 | -104.68399 | 5372 ft | 27 kts | 181° |
| 2026-05-06 17:59 | 39.85668 | -104.68400 | 5372 ft | 26 kts | 180° |
| 2026-05-06 17:59 | 39.85494 | -104.68401 | 5374 ft | 24 kts | 180° |
| 2026-05-06 18:00 | 39.85333 | -104.68397 | 5376 ft | 23 kts | 178° |
| 2026-05-06 18:00 | 39.85217 | -104.68432 | 5377 ft | 15 kts | 235° |
| 2026-05-06 18:00 | 39.85207 | -104.68592 | 5371 ft | 21 kts | 270° |
| 2026-05-06 18:00 | 39.85203 | -104.68805 | 5361 ft | 27 kts | 268° |
| 2026-05-06 18:01 | 39.85200 | -104.69044 | 5350 ft | 26 kts | 269° |
| 2026-05-06 18:01 | 39.85200 | -104.69271 | 5343 ft | 24 kts | 274° |
| 2026-05-06 18:01 | 39.85203 | -104.69461 | 5334 ft | 20 kts | 270° |
| 2026-05-06 18:01 | 39.85203 | -104.69579 | 5332 ft | 11 kts | 270° |
| 2026-05-06 18:02 | 39.85229 | -104.69659 | 5335 ft | 10 kts | 345° |
| 2026-05-06 18:02 | 39.85263 | -104.69658 | 5335 ft | 0 kts | 3° |
| 2026-05-06 18:03 | 39.85295 | -104.69657 | 5334 ft | 20 kts | 0° |
| 2026-05-06 18:03 | 39.85673 | -104.69654 | 5332 ft | 91 kts | 1° |
| 2026-05-06 18:03 | 39.86525 | -104.69644 | 5322 ft | 152 kts | 1° |
| 2026-05-06 18:03 | 39.87719 | -104.69638 | 5572 ft | 190 kts | 1° |
| 2026-05-06 18:04 | 39.89089 | -104.69660 | 6304 ft | 203 kts | 0° |
| 2026-05-06 18:04 | 39.90536 | -104.69647 | 6930 ft | 221 kts | 2° |
| 2026-05-06 18:04 | 39.92201 | -104.69585 | 7213 ft | 257 kts | 2° |
| 2026-05-06 18:04 | 39.94057 | -104.69519 | 7923 ft | 272 kts | 1° |
| 2026-05-06 18:05 | 39.95974 | -104.69462 | 8920 ft | 277 kts | 1° |
| 2026-05-06 18:05 | 39.97921 | -104.69413 | 9694 ft | 282 kts | 1° |
| 2026-05-06 18:05 | 39.99892 | -104.69369 | 9988 ft | 285 kts | 0° |
| 2026-05-06 18:05 | 40.01885 | -104.69342 | 9977 ft | 286 kts | 357° |
| 2026-05-06 18:06 | 40.03909 | -104.69611 | 10135 ft | 304 kts | 351° |
| 2026-05-06 18:06 | 40.06096 | -104.70071 | 10367 ft | 333 kts | 350° |
| 2026-05-06 18:06 | 40.08439 | -104.70599 | 10833 ft | 348 kts | 350° |
| 2026-05-06 18:06 | 40.10809 | -104.71129 | 11648 ft | 351 kts | 350° |
| 2026-05-06 18:07 | 40.13218 | -104.71651 | 12531 ft | 354 kts | 350° |
| 2026-05-06 18:07 | 40.15671 | -104.72170 | 13404 ft | 358 kts | 350° |
| 2026-05-06 18:07 | 40.18139 | -104.72685 | 14261 ft | 361 kts | 350° |
| 2026-05-06 18:07 | 40.20641 | -104.73201 | 15020 ft | 366 kts | 349° |
| 2026-05-06 18:08 | 40.23175 | -104.73720 | 15785 ft | 371 kts | 349° |
| 2026-05-06 18:08 | 40.25747 | -104.74243 | 16577 ft | 375 kts | 349° |
| 2026-05-06 18:08 | 40.28342 | -104.74771 | 17341 ft | 380 kts | 348° |
| 2026-05-06 18:08 | 40.30973 | -104.75305 | 18099 ft | 385 kts | 348° |
| 2026-05-06 18:09 | 40.33640 | -104.75846 | 18806 ft | 389 kts | 348° |
| 2026-05-06 18:09 | 40.36331 | -104.76393 | 19485 ft | 392 kts | 348° |
| 2026-05-06 18:09 | 40.39038 | -104.76943 | 20165 ft | 395 kts | 347° |
| 2026-05-06 18:09 | 40.41726 | -104.77491 | 20820 ft | 398 kts | 347° |
| 2026-05-06 18:10 | 40.44475 | -104.78051 | 21472 ft | 401 kts | 348° |
| 2026-05-06 18:10 | 40.47251 | -104.78618 | 22083 ft | 404 kts | 348° |
| 2026-05-06 18:10 | 40.50042 | -104.79188 | 22696 ft | 408 kts | 348° |
| 2026-05-06 18:10 | 40.52858 | -104.79764 | 23206 ft | 412 kts | 348° |
| 2026-05-06 18:11 | 40.55742 | -104.80357 | 23197 ft | 427 kts | 348° |
| 2026-05-06 18:11 | 40.58729 | -104.80970 | 23210 ft | 439 kts | 349° |
| 2026-05-06 18:11 | 40.61767 | -104.81593 | 23203 ft | 445 kts | 349° |
| 2026-05-06 18:11 | 40.64818 | -104.82216 | 23192 ft | 442 kts | 349° |
| 2026-05-06 18:12 | 40.67848 | -104.82836 | 23194 ft | 440 kts | 349° |
| 2026-05-06 18:12 | 40.70874 | -104.83457 | 23186 ft | 440 kts | 349° |
| 2026-05-06 18:12 | 40.73897 | -104.84079 | 23178 ft | 439 kts | 349° |
| 2026-05-06 18:12 | 40.76902 | -104.84810 | 23165 ft | 438 kts | 345° |
| 2026-05-06 18:13 | 40.79790 | -104.86058 | 23171 ft | 436 kts | 337° |
| 2026-05-06 18:13 | 40.82494 | -104.87867 | 23178 ft | 435 kts | 330° |
| 2026-05-06 18:13 | 40.85117 | -104.89852 | 23345 ft | 432 kts | 330° |
| 2026-05-06 18:13 | 40.87680 | -104.91812 | 23751 ft | 435 kts | 330° |
| 2026-05-06 18:14 | 40.90322 | -104.93827 | 23988 ft | 440 kts | 330° |
| 2026-05-06 18:14 | 40.92981 | -104.95844 | 24340 ft | 441 kts | 330° |
| 2026-05-06 18:14 | 40.95646 | -104.97855 | 24728 ft | 441 kts | 331° |
| 2026-05-06 18:14 | 40.98318 | -104.99865 | 25095 ft | 442 kts | 331° |
| 2026-05-06 18:15 | 41.00998 | -105.01877 | 25419 ft | 443 kts | 331° |
| 2026-05-06 18:15 | 41.03688 | -105.03897 | 25742 ft | 444 kts | 332° |
| 2026-05-06 18:15 | 41.06378 | -105.05918 | 26059 ft | 445 kts | 332° |
| 2026-05-06 18:15 | 41.09082 | -105.07952 | 26390 ft | 446 kts | 332° |
| 2026-05-06 18:16 | 41.11776 | -105.09982 | 26782 ft | 444 kts | 332° |
| 2026-05-06 18:16 | 41.14449 | -105.11998 | 27279 ft | 441 kts | 332° |
| 2026-05-06 18:16 | 41.17069 | -105.13975 | 27801 ft | 437 kts | 333° |
| 2026-05-06 18:16 | 41.19703 | -105.15966 | 28361 ft | 433 kts | 333° |
| 2026-05-06 18:17 | 41.22308 | -105.17937 | 28891 ft | 429 kts | 333° |
| 2026-05-06 18:17 | 41.24892 | -105.19893 | 29434 ft | 426 kts | 334° |
| 2026-05-06 18:17 | 41.27456 | -105.21836 | 30018 ft | 422 kts | 334° |
| 2026-05-06 18:17 | 41.29991 | -105.23759 | 30533 ft | 419 kts | 334° |
| 2026-05-06 18:18 | 41.32525 | -105.25681 | 30903 ft | 418 kts | 334° |
| 2026-05-06 18:18 | 41.35054 | -105.27601 | 31186 ft | 419 kts | 334° |
| 2026-05-06 18:18 | 41.37590 | -105.29528 | 31526 ft | 419 kts | 334° |
| 2026-05-06 18:18 | 41.40122 | -105.31455 | 31922 ft | 418 kts | 334° |
| 2026-05-06 18:19 | 41.42640 | -105.33373 | 32317 ft | 417 kts | 334° |
| 2026-05-06 18:19 | 41.45085 | -105.35376 | 32672 ft | 420 kts | 329° |
| 2026-05-06 18:19 | 41.47374 | -105.37825 | 33052 ft | 424 kts | 323° |
| 2026-05-06 18:19 | 41.49430 | -105.40668 | 33453 ft | 429 kts | 315° |
| 2026-05-06 18:20 | 41.51289 | -105.43790 | 33873 ft | 429 kts | 314° |
| 2026-05-06 18:20 | 41.53118 | -105.46941 | 34172 ft | 430 kts | 314° |
| 2026-05-06 18:20 | 41.56773 | -105.53282 | 34149 ft | 430 kts | 314° |
| 2026-05-06 18:21 | 41.60420 | -105.59584 | 34162 ft | 427 kts | 315° |
| 2026-05-06 18:21 | 41.64058 | -105.65839 | 34162 ft | 425 kts | 315° |
| 2026-05-06 18:22 | 41.67667 | -105.72039 | 34151 ft | 422 kts | 315° |
| 2026-05-06 18:22 | 41.71256 | -105.78218 | 34153 ft | 422 kts | 315° |
| 2026-05-06 18:23 | 41.74901 | -105.84490 | 34163 ft | 430 kts | 315° |
| 2026-05-06 18:23 | 41.78558 | -105.90812 | 34151 ft | 428 kts | 315° |
| 2026-05-06 18:24 | 41.82188 | -105.97107 | 34152 ft | 426 kts | 316° |
| 2026-05-06 18:24 | 41.85803 | -106.03385 | 34164 ft | 425 kts | 316° |
| 2026-05-06 18:25 | 41.89409 | -106.09656 | 34162 ft | 424 kts | 316° |
| 2026-05-06 18:25 | 41.93006 | -106.15925 | 34162 ft | 423 kts | 316° |
| 2026-05-06 18:26 | 41.96571 | -106.22151 | 34171 ft | 422 kts | 316° |
| 2026-05-06 18:26 | 42.00152 | -106.28419 | 34167 ft | 421 kts | 316° |
| 2026-05-06 18:27 | 42.03712 | -106.34662 | 34169 ft | 420 kts | 317° |
| 2026-05-06 18:27 | 42.07263 | -106.40904 | 34164 ft | 419 kts | 317° |
| 2026-05-06 18:28 | 42.10208 | -106.46089 | 34162 ft | 419 kts | 317° |
| 2026-05-06 18:28 | 42.14313 | -106.53332 | 34178 ft | 417 kts | 317° |
| 2026-05-06 18:29 | 42.17237 | -106.58500 | 34177 ft | 417 kts | 317° |
| 2026-05-06 18:29 | 42.20751 | -106.64724 | 34174 ft | 417 kts | 317° |
| 2026-05-06 18:30 | 42.24271 | -106.70971 | 34176 ft | 417 kts | 317° |
| 2026-05-06 18:30 | 42.27775 | -106.77206 | 34177 ft | 416 kts | 317° |
| 2026-05-06 18:31 | 42.31274 | -106.83442 | 34175 ft | 416 kts | 317° |
| 2026-05-06 18:31 | 42.34768 | -106.89681 | 34173 ft | 416 kts | 317° |
| 2026-05-06 18:32 | 42.38233 | -106.95885 | 34170 ft | 415 kts | 317° |
| 2026-05-06 18:32 | 42.41714 | -107.02128 | 34173 ft | 415 kts | 317° |
| 2026-05-06 18:33 | 42.45184 | -107.08365 | 34167 ft | 414 kts | 317° |
| 2026-05-06 18:33 | 42.48650 | -107.14605 | 34165 ft | 414 kts | 317° |
| 2026-05-06 18:34 | 42.52109 | -107.20850 | 34160 ft | 413 kts | 317° |
| 2026-05-06 18:34 | 42.55535 | -107.27046 | 34165 ft | 413 kts | 316° |
| 2026-05-06 18:35 | 42.58979 | -107.33287 | 34165 ft | 413 kts | 316° |
| 2026-05-06 18:35 | 42.62417 | -107.39530 | 34173 ft | 412 kts | 316° |
| 2026-05-06 18:36 | 42.65852 | -107.45781 | 34168 ft | 412 kts | 316° |
| 2026-05-06 18:36 | 42.69284 | -107.52040 | 34170 ft | 412 kts | 316° |
| 2026-05-06 18:37 | 42.72690 | -107.58265 | 34163 ft | 412 kts | 316° |
| 2026-05-06 18:37 | 42.76112 | -107.64530 | 34171 ft | 412 kts | 316° |
| 2026-05-06 18:38 | 42.79535 | -107.70811 | 34162 ft | 413 kts | 315° |
| 2026-05-06 18:38 | 42.82956 | -107.77103 | 34157 ft | 413 kts | 315° |
| 2026-05-06 18:39 | 42.86371 | -107.83397 | 34166 ft | 413 kts | 315° |
| 2026-05-06 18:40 | 42.91454 | -107.92792 | 34154 ft | 412 kts | 315° |
| 2026-05-06 18:40 | 42.94853 | -107.99090 | 34152 ft | 412 kts | 315° |
| 2026-05-06 18:41 | 42.98251 | -108.05398 | 34148 ft | 412 kts | 315° |
| 2026-05-06 18:41 | 43.01640 | -108.11704 | 34151 ft | 412 kts | 315° |
| 2026-05-06 18:42 | 43.05023 | -108.18012 | 34152 ft | 412 kts | 315° |
| 2026-05-06 18:42 | 43.08407 | -108.24336 | 34149 ft | 412 kts | 314° |
| 2026-05-06 18:43 | 43.11789 | -108.30668 | 34150 ft | 412 kts | 314° |
| 2026-05-06 18:43 | 43.15165 | -108.37004 | 34157 ft | 412 kts | 314° |
| 2026-05-06 18:44 | 43.18549 | -108.43367 | 34155 ft | 412 kts | 314° |
| 2026-05-06 18:44 | 43.21927 | -108.49734 | 34148 ft | 413 kts | 314° |
| 2026-05-06 18:45 | 43.25283 | -108.56072 | 34147 ft | 413 kts | 314° |
| 2026-05-06 18:45 | 43.28654 | -108.62453 | 34153 ft | 413 kts | 314° |
| 2026-05-06 18:46 | 43.32018 | -108.68835 | 34156 ft | 413 kts | 314° |
| 2026-05-06 18:46 | 43.35387 | -108.75239 | 34159 ft | 412 kts | 313° |
| 2026-05-06 18:47 | 43.38747 | -108.81642 | 34161 ft | 412 kts | 313° |
| 2026-05-06 18:47 | 43.42102 | -108.88047 | 34149 ft | 413 kts | 313° |
| 2026-05-06 18:48 | 43.45458 | -108.94468 | 34139 ft | 413 kts | 313° |
| 2026-05-06 18:48 | 43.48791 | -109.00858 | 34134 ft | 413 kts | 313° |
| 2026-05-06 18:49 | 43.52142 | -109.07300 | 34124 ft | 413 kts | 313° |
| 2026-05-06 18:49 | 43.55492 | -109.13753 | 34118 ft | 414 kts | 313° |
| 2026-05-06 18:50 | 43.58843 | -109.20219 | 34109 ft | 414 kts | 313° |
| 2026-05-06 18:50 | 43.62171 | -109.26658 | 34104 ft | 414 kts | 312° |
| 2026-05-06 18:51 | 43.65518 | -109.33148 | 34103 ft | 414 kts | 312° |
| 2026-05-06 18:51 | 43.68856 | -109.39635 | 34088 ft | 414 kts | 312° |
| 2026-05-06 18:52 | 43.72188 | -109.46123 | 34106 ft | 414 kts | 312° |
| 2026-05-06 18:52 | 43.75521 | -109.52628 | 34115 ft | 414 kts | 312° |
| 2026-05-06 18:53 | 43.78850 | -109.59142 | 34114 ft | 414 kts | 312° |
| 2026-05-06 18:53 | 43.82156 | -109.65622 | 34124 ft | 414 kts | 312° |
| 2026-05-06 18:54 | 43.85474 | -109.72142 | 34137 ft | 414 kts | 312° |
| 2026-05-06 18:54 | 43.88793 | -109.78674 | 34128 ft | 415 kts | 311° |
| 2026-05-06 18:55 | 43.92100 | -109.85202 | 34150 ft | 413 kts | 312° |
| 2026-05-06 18:55 | 43.95404 | -109.91739 | 34155 ft | 413 kts | 311° |
| 2026-05-06 18:56 | 43.98703 | -109.98278 | 34168 ft | 413 kts | 312° |
| 2026-05-06 18:56 | 44.01981 | -110.04793 | 34162 ft | 414 kts | 311° |
| 2026-05-06 18:57 | 44.05387 | -110.11199 | 34159 ft | 408 kts | 319° |
| 2026-05-06 18:57 | 44.09600 | -110.16341 | 34161 ft | 398 kts | 330° |
| 2026-05-06 18:58 | 44.14358 | -110.20240 | 34172 ft | 396 kts | 333° |
| 2026-05-06 18:58 | 44.19148 | -110.24060 | 34178 ft | 396 kts | 333° |
| 2026-05-06 18:59 | 44.23927 | -110.27902 | 34174 ft | 397 kts | 333° |
| 2026-05-06 18:59 | 44.28684 | -110.31753 | 34164 ft | 397 kts | 333° |
| 2026-05-06 19:00 | 44.33457 | -110.35634 | 34163 ft | 397 kts | 333° |
| 2026-05-06 19:00 | 44.38232 | -110.39526 | 34165 ft | 397 kts | 333° |
| 2026-05-06 19:01 | 44.43017 | -110.43433 | 34155 ft | 398 kts | 333° |
| 2026-05-06 19:01 | 44.47767 | -110.47320 | 34152 ft | 398 kts | 333° |
| 2026-05-06 19:02 | 44.52549 | -110.51240 | 34157 ft | 398 kts | 333° |
| 2026-05-06 19:02 | 44.57332 | -110.55168 | 34159 ft | 399 kts | 333° |
| 2026-05-06 19:03 | 44.62127 | -110.59113 | 34151 ft | 399 kts | 333° |
| 2026-05-06 19:03 | 44.66920 | -110.63066 | 34151 ft | 400 kts | 332° |
| 2026-05-06 19:04 | 44.71721 | -110.67032 | 34162 ft | 400 kts | 332° |
| 2026-05-06 19:04 | 44.76492 | -110.70981 | 34145 ft | 400 kts | 332° |
| 2026-05-06 19:05 | 44.81285 | -110.74956 | 34149 ft | 399 kts | 332° |
| 2026-05-06 19:05 | 44.86071 | -110.78933 | 34143 ft | 399 kts | 332° |
| 2026-05-06 19:06 | 44.90829 | -110.82894 | 34125 ft | 398 kts | 332° |
| 2026-05-06 19:06 | 44.95600 | -110.86873 | 34133 ft | 398 kts | 332° |
| 2026-05-06 19:07 | 45.00370 | -110.90860 | 34142 ft | 398 kts | 332° |
| 2026-05-06 19:07 | 45.05136 | -110.94851 | 34117 ft | 398 kts | 332° |
| 2026-05-06 19:07 | 45.07541 | -110.96866 | 33279 ft | 403 kts | 332° |
| 2026-05-06 19:08 | 45.09935 | -110.98878 | 32442 ft | 399 kts | 332° |
| 2026-05-06 19:08 | 45.12326 | -111.00888 | 31568 ft | 399 kts | 332° |
| 2026-05-06 19:08 | 45.14676 | -111.02865 | 30715 ft | 397 kts | 332° |
| 2026-05-06 19:08 | 45.17042 | -111.04858 | 29991 ft | 393 kts | 332° |
| 2026-05-06 19:09 | 45.19383 | -111.06833 | 29208 ft | 388 kts | 332° |
| 2026-05-06 19:09 | 45.21680 | -111.08772 | 28485 ft | 382 kts | 332° |
| 2026-05-06 19:09 | 45.23949 | -111.10689 | 27795 ft | 375 kts | 332° |
| 2026-05-06 19:09 | 45.26179 | -111.12574 | 27107 ft | 370 kts | 332° |
| 2026-05-06 19:10 | 45.28381 | -111.14436 | 26404 ft | 366 kts | 332° |
| 2026-05-06 19:10 | 45.30560 | -111.16281 | 25736 ft | 362 kts | 332° |
| 2026-05-06 19:10 | 45.32686 | -111.18081 | 25087 ft | 359 kts | 332° |
| 2026-05-06 19:10 | 45.34818 | -111.19890 | 24404 ft | 355 kts | 332° |
| 2026-05-06 19:11 | 45.36928 | -111.21688 | 23755 ft | 353 kts | 331° |
| 2026-05-06 19:11 | 45.39027 | -111.23478 | 23008 ft | 350 kts | 332° |
| 2026-05-06 19:11 | 45.41113 | -111.25247 | 22314 ft | 346 kts | 332° |
| 2026-05-06 19:11 | 45.43169 | -111.26993 | 21614 ft | 343 kts | 332° |
| 2026-05-06 19:12 | 45.45201 | -111.28728 | 20982 ft | 338 kts | 331° |
| 2026-05-06 19:12 | 45.47215 | -111.30443 | 20358 ft | 336 kts | 331° |
| 2026-05-06 19:12 | 45.49218 | -111.32149 | 19696 ft | 335 kts | 330° |
| 2026-05-06 19:12 | 45.51215 | -111.33852 | 19048 ft | 334 kts | 330° |
| 2026-05-06 19:13 | 45.53201 | -111.35549 | 18418 ft | 332 kts | 330° |
| 2026-05-06 19:13 | 45.55179 | -111.37240 | 17691 ft | 332 kts | 330° |
| 2026-05-06 19:13 | 45.57158 | -111.38934 | 17013 ft | 330 kts | 330° |
| 2026-05-06 19:13 | 45.59132 | -111.40625 | 16286 ft | 331 kts | 329° |
| 2026-05-06 19:14 | 45.61099 | -111.42311 | 15631 ft | 329 kts | 329° |
| 2026-05-06 19:14 | 45.63030 | -111.43969 | 14992 ft | 328 kts | 329° |
| 2026-05-06 19:14 | 45.64986 | -111.45649 | 14313 ft | 328 kts | 329° |
| 2026-05-06 19:14 | 45.66942 | -111.47311 | 13605 ft | 327 kts | 330° |
| 2026-05-06 19:15 | 45.68988 | -111.48735 | 12863 ft | 327 kts | 336° |
| 2026-05-06 19:15 | 45.71131 | -111.49827 | 12225 ft | 325 kts | 342° |
| 2026-05-06 19:15 | 45.73286 | -111.50601 | 11490 ft | 315 kts | 346° |
| 2026-05-06 19:15 | 45.75415 | -111.51068 | 11110 ft | 298 kts | 351° |
| 2026-05-06 19:16 | 45.77453 | -111.51284 | 10366 ft | 294 kts | 355° |
| 2026-05-06 19:16 | 45.79409 | -111.51256 | 10242 ft | 272 kts | 359° |
| 2026-05-06 19:16 | 45.81227 | -111.51041 | 10109 ft | 253 kts | 2° |
| 2026-05-06 19:16 | 45.82914 | -111.50674 | 9978 ft | 239 kts | 5° |
| 2026-05-06 19:17 | 45.84546 | -111.50165 | 9669 ft | 242 kts | 9° |
| 2026-05-06 19:17 | 45.86214 | -111.49474 | 9313 ft | 258 kts | 13° |
| 2026-05-06 19:17 | 45.87927 | -111.48568 | 9150 ft | 263 kts | 18° |
| 2026-05-06 19:17 | 45.89576 | -111.47491 | 8993 ft | 257 kts | 22° |
| 2026-05-06 19:18 | 45.90617 | -111.46702 | 8909 ft | 252 kts | 24° |
| 2026-05-06 19:18 | 45.92563 | -111.45010 | 8758 ft | 242 kts | 29° |
| 2026-05-06 19:18 | 45.93881 | -111.43558 | 8661 ft | 237 kts | 44° |
| 2026-05-06 19:18 | 45.94632 | -111.41473 | 8570 ft | 237 kts | 76° |
| 2026-05-06 19:19 | 45.94525 | -111.39136 | 8410 ft | 238 kts | 110° |
| 2026-05-06 19:19 | 45.93636 | -111.37167 | 8175 ft | 233 kts | 134° |
| 2026-05-06 19:19 | 45.92500 | -111.35560 | 7943 ft | 226 kts | 139° |
| 2026-05-06 19:19 | 45.91420 | -111.34111 | 7705 ft | 211 kts | 138° |
| 2026-05-06 19:20 | 45.90681 | -111.33111 | 7515 ft | 199 kts | 137° |
| 2026-05-06 19:21 | 45.89719 | -111.31800 | 7347 ft | 182 kts | 138° |
| 2026-05-06 19:21 | 45.88846 | -111.30601 | 7135 ft | 169 kts | 139° |
| 2026-05-06 19:21 | 45.88025 | -111.29466 | 6918 ft | 160 kts | 140° |
| 2026-05-06 19:21 | 45.87178 | -111.28307 | 6813 ft | 172 kts | 139° |
| 2026-05-06 19:22 | 45.86342 | -111.27143 | 6585 ft | 163 kts | 139° |
| 2026-05-06 19:22 | 45.85525 | -111.26006 | 6395 ft | 167 kts | 140° |
| 2026-05-06 19:22 | 45.84683 | -111.24837 | 6149 ft | 165 kts | 141° |
| 2026-05-06 19:22 | 45.83873 | -111.23699 | 5876 ft | 162 kts | 137° |
| 2026-05-06 19:23 | 45.83089 | -111.22617 | 5632 ft | 150 kts | 137° |
| 2026-05-06 19:23 | 45.82348 | -111.21583 | 5414 ft | 149 kts | 136° |
| 2026-05-06 19:23 | 45.81608 | -111.20548 | 5190 ft | 150 kts | 135° |
| 2026-05-06 19:23 | 45.80859 | -111.19510 | 5016 ft | 151 kts | 136° |
| 2026-05-06 19:24 | 45.80117 | -111.18466 | 4862 ft | 148 kts | 137° |
| 2026-05-06 19:24 | 45.79390 | -111.17441 | 4614 ft | 145 kts | 140° |
| 2026-05-06 19:24 | 45.78681 | -111.16465 | 4444 ft | 136 kts | 139° |
| 2026-05-06 19:24 | 45.78085 | -111.15644 | 4453 ft | 92 kts | 136° |
| 2026-05-06 19:25 | 45.77746 | -111.15158 | 4458 ft | 59 kts | 136° |
| 2026-05-06 19:25 | 45.77571 | -111.14927 | 4462 ft | 21 kts | 155° |
| 2026-05-06 19:25 | 45.77459 | -111.15009 | 4461 ft | 18 kts | 227° |
| 2026-05-06 19:25 | 45.77426 | -111.15138 | 4461 ft | 15 kts | 310° |
| 2026-05-06 19:26 | 45.77500 | -111.15238 | 4459 ft | 14 kts | 316° |
| 2026-05-06 19:26 | 45.77569 | -111.15335 | 4457 ft | 14 kts | 315° |
| 2026-05-06 19:26 | 45.77635 | -111.15428 | 4456 ft | 13 kts | 315° |
| 2026-05-06 19:26 | 45.77697 | -111.15517 | 4455 ft | 13 kts | 315° |
| 2026-05-06 19:27 | 45.77759 | -111.15605 | 4453 ft | 12 kts | 316° |
| 2026-05-06 19:27 | 45.77823 | -111.15691 | 4452 ft | 14 kts | 316° |
| 2026-05-06 19:27 | 45.77899 | -111.15792 | 4451 ft | 16 kts | 317° |
| 2026-05-06 19:27 | 45.77936 | -111.15902 | 4450 ft | 12 kts | 245° |
| 2026-05-06 19:28 | 45.77908 | -111.15938 | 4450 ft | 4 kts | 201° |
| 2026-05-06 19:28 | 45.77879 | -111.15956 | 4451 ft | 5 kts | 224° |
| 2026-05-06 19:28 | 45.77862 | -111.15989 | 4451 ft | 3 kts | 227° |
| 2026-05-06 19:28 | 45.77855 | -111.15998 | 4451 ft | 0 kts | 225° |